sensor_id;sensor_type;location;lat;lon;timestamp;P1;durP1;ratioP1;P2;durP2;ratioP2
75512;SDS011;64090;49.770;18.760;2023-10-08T00:01:24;6.30;;;2.50;;
75512;SDS011;64090;49.770;18.760;2023-10-08T00:04:55;6.70;;;2.50;;
75512;SDS011;64090;49.770;18.760;2023-10-08T00:09:05;5.20;;;2.10;;
75512;SDS011;64090;49.770;18.760;2023-10-08T00:12:44;4.30;;;1.80;;
75512;SDS011;64090;49.770;18.760;2023-10-08T00:16:17;5.20;;;2.00;;
75512;SDS011;64090;49.770;18.760;2023-10-08T00:19:46;6.40;;;2.60;;
75512;SDS011;64090;49.770;18.760;2023-10-08T00:23:13;8.40;;;2.60;;
75512;SDS011;64090;49.770;18.760;2023-10-08T00:26:47;5.70;;;2.20;;
75512;SDS011;64090;49.770;18.760;2023-10-08T00:30:52;5.60;;;2.00;;
75512;SDS011;64090;49.770;18.760;2023-10-08T00:34:26;6.40;;;2.30;;
75512;SDS011;64090;49.770;18.760;2023-10-08T00:37:59;5.90;;;2.20;;
75512;SDS011;64090;49.770;18.760;2023-10-08T00:41:34;5.80;;;2.40;;
75512;SDS011;64090;49.770;18.760;2023-10-08T00:45:26;5.00;;;2.10;;
75512;SDS011;64090;49.770;18.760;2023-10-08T00:49:02;7.00;;;2.70;;
75512;SDS011;64090;49.770;18.760;2023-10-08T00:53:29;8.20;;;2.30;;
75512;SDS011;64090;49.770;18.760;2023-10-08T00:56:59;5.80;;;2.30;;
75512;SDS011;64090;49.770;18.760;2023-10-08T01:00:30;7.70;;;2.60;;
75512;SDS011;64090;49.770;18.760;2023-10-08T01:04:02;5.00;;;2.00;;
75512;SDS011;64090;49.770;18.760;2023-10-08T01:08:04;5.60;;;2.90;;
75512;SDS011;64090;49.770;18.760;2023-10-08T01:12:15;4.30;;;1.70;;
75512;SDS011;64090;49.770;18.760;2023-10-08T01:16:18;4.90;;;2.60;;
75512;SDS011;64090;49.770;18.760;2023-10-08T01:19:53;8.20;;;2.40;;
75512;SDS011;64090;49.770;18.760;2023-10-08T01:23:54;5.80;;;1.90;;
75512;SDS011;64090;49.770;18.760;2023-10-08T01:27:39;7.00;;;2.40;;
75512;SDS011;64090;49.770;18.760;2023-10-08T01:31:11;5.10;;;2.20;;
75512;SDS011;64090;49.770;18.760;2023-10-08T01:34:36;6.60;;;2.20;;
75512;SDS011;64090;49.770;18.760;2023-10-08T01:38:05;4.50;;;1.70;;
75512;SDS011;64090;49.770;18.760;2023-10-08T01:41:31;5.00;;;2.40;;
75512;SDS011;64090;49.770;18.760;2023-10-08T01:45:03;7.50;;;2.50;;
75512;SDS011;64090;49.770;18.760;2023-10-08T01:48:35;6.70;;;2.80;;
75512;SDS011;64090;49.770;18.760;2023-10-08T01:52:19;7.80;;;2.50;;
75512;SDS011;64090;49.770;18.760;2023-10-08T01:55:53;4.20;;;2.40;;
75512;SDS011;64090;49.770;18.760;2023-10-08T01:59:18;6.00;;;1.70;;
75512;SDS011;64090;49.770;18.760;2023-10-08T02:02:50;7.50;;;2.70;;
75512;SDS011;64090;49.770;18.760;2023-10-08T02:06:23;4.60;;;2.10;;
75512;SDS011;64090;49.770;18.760;2023-10-08T02:10:13;6.00;;;1.90;;
75512;SDS011;64090;49.770;18.760;2023-10-08T02:13:47;3.80;;;1.80;;
75512;SDS011;64090;49.770;18.760;2023-10-08T02:17:14;3.90;;;2.10;;
75512;SDS011;64090;49.770;18.760;2023-10-08T02:21:08;5.00;;;1.90;;
75512;SDS011;64090;49.770;18.760;2023-10-08T02:24:31;8.40;;;1.90;;
75512;SDS011;64090;49.770;18.760;2023-10-08T02:28:10;6.00;;;2.70;;
75512;SDS011;64090;49.770;18.760;2023-10-08T02:31:39;5.70;;;2.20;;
75512;SDS011;64090;49.770;18.760;2023-10-08T02:35:16;5.20;;;2.50;;
75512;SDS011;64090;49.770;18.760;2023-10-08T02:38:46;6.30;;;2.90;;
75512;SDS011;64090;49.770;18.760;2023-10-08T02:42:23;6.70;;;2.80;;
75512;SDS011;64090;49.770;18.760;2023-10-08T02:45:53;6.60;;;2.60;;
75512;SDS011;64090;49.770;18.760;2023-10-08T02:49:21;6.20;;;2.70;;
75512;SDS011;64090;49.770;18.760;2023-10-08T02:52:52;7.20;;;2.20;;
75512;SDS011;64090;49.770;18.760;2023-10-08T02:56:24;4.60;;;2.50;;
75512;SDS011;64090;49.770;18.760;2023-10-08T03:00:10;4.90;;;1.80;;
75512;SDS011;64090;49.770;18.760;2023-10-08T03:03:48;6.10;;;2.50;;
75512;SDS011;64090;49.770;18.760;2023-10-08T03:07:44;4.60;;;1.80;;
75512;SDS011;64090;49.770;18.760;2023-10-08T03:11:25;7.00;;;2.50;;
75512;SDS011;64090;49.770;18.760;2023-10-08T03:15:04;6.30;;;2.10;;
75512;SDS011;64090;49.770;18.760;2023-10-08T03:18:53;7.10;;;2.80;;
75512;SDS011;64090;49.770;18.760;2023-10-08T03:22:26;5.10;;;1.90;;
75512;SDS011;64090;49.770;18.760;2023-10-08T03:25:54;4.20;;;1.90;;
75512;SDS011;64090;49.770;18.760;2023-10-08T03:29:36;6.10;;;2.30;;
75512;SDS011;64090;49.770;18.760;2023-10-08T03:33:04;7.30;;;2.50;;
75512;SDS011;64090;49.770;18.760;2023-10-08T03:36:34;6.40;;;2.40;;
75512;SDS011;64090;49.770;18.760;2023-10-08T03:40:12;7.20;;;3.70;;
75512;SDS011;64090;49.770;18.760;2023-10-08T03:44:10;6.50;;;3.80;;
75512;SDS011;64090;49.770;18.760;2023-10-08T03:47:48;3.30;;;2.90;;
75512;SDS011;64090;49.770;18.760;2023-10-08T03:51:19;2.10;;;1.20;;
75512;SDS011;64090;49.770;18.760;2023-10-08T03:54:52;1.90;;;1.20;;
75512;SDS011;64090;49.770;18.760;2023-10-08T03:58:33;1.80;;;1.00;;
75512;SDS011;64090;49.770;18.760;2023-10-08T04:02:10;2.10;;;1.30;;
75512;SDS011;64090;49.770;18.760;2023-10-08T04:06:21;3.50;;;1.90;;
75512;SDS011;64090;49.770;18.760;2023-10-08T04:10:13;1.30;;;1.00;;
75512;SDS011;64090;49.770;18.760;2023-10-08T04:13:50;1.40;;;1.10;;
75512;SDS011;64090;49.770;18.760;2023-10-08T04:18:13;0.80;;;0.70;;
75512;SDS011;64090;49.770;18.760;2023-10-08T04:22:35;1.30;;;0.80;;
75512;SDS011;64090;49.770;18.760;2023-10-08T04:26:15;1.70;;;1.00;;
75512;SDS011;64090;49.770;18.760;2023-10-08T04:39:32;1.80;;;1.40;;
75512;SDS011;64090;49.770;18.760;2023-10-08T04:43:31;1.80;;;1.10;;
75512;SDS011;64090;49.770;18.760;2023-10-08T04:48:08;0.90;;;0.60;;
75512;SDS011;64090;49.770;18.760;2023-10-08T04:52:23;1.10;;;0.90;;
75512;SDS011;64090;49.770;18.760;2023-10-08T05:00:32;1.60;;;0.60;;
75512;SDS011;64090;49.770;18.760;2023-10-08T05:17:19;3.10;;;0.80;;
75512;SDS011;64090;49.770;18.760;2023-10-08T05:21:08;1.80;;;0.70;;
75512;SDS011;64090;49.770;18.760;2023-10-08T05:25:13;1.70;;;0.60;;
75512;SDS011;64090;49.770;18.760;2023-10-08T05:29:24;3.00;;;1.00;;
75512;SDS011;64090;49.770;18.760;2023-10-08T05:44:38;6.30;;;1.60;;
75512;SDS011;64090;49.770;18.760;2023-10-08T05:49:00;3.70;;;1.20;;
75512;SDS011;64090;49.770;18.760;2023-10-08T05:52:56;3.80;;;1.10;;
75512;SDS011;64090;49.770;18.760;2023-10-08T05:56:43;4.60;;;1.40;;
75512;SDS011;64090;49.770;18.760;2023-10-08T06:06:27;3.90;;;1.40;;
75512;SDS011;64090;49.770;18.760;2023-10-08T06:11:00;4.60;;;1.40;;
75512;SDS011;64090;49.770;18.760;2023-10-08T06:23:27;4.30;;;1.20;;
75512;SDS011;64090;49.770;18.760;2023-10-08T06:27:43;3.30;;;1.40;;
75512;SDS011;64090;49.770;18.760;2023-10-08T06:35:38;4.20;;;1.90;;
75512;SDS011;64090;49.770;18.760;2023-10-08T06:39:58;3.30;;;1.20;;
75512;SDS011;64090;49.770;18.760;2023-10-08T06:43:47;2.80;;;1.10;;
75512;SDS011;64090;49.770;18.760;2023-10-08T07:04:31;4.00;;;1.50;;
75512;SDS011;64090;49.770;18.760;2023-10-08T07:08:20;4.70;;;1.60;;
75512;SDS011;64090;49.770;18.760;2023-10-08T07:19:27;3.00;;;1.40;;
75512;SDS011;64090;49.770;18.760;2023-10-08T07:23:43;3.10;;;1.70;;
75512;SDS011;64090;49.770;18.760;2023-10-08T07:32:30;3.60;;;3.20;;
75512;SDS011;64090;49.770;18.760;2023-10-08T07:36:38;4.40;;;2.70;;
75512;SDS011;64090;49.770;18.760;2023-10-08T07:40:53;3.60;;;2.10;;
75512;SDS011;64090;49.770;18.760;2023-10-08T07:44:06;5.10;;;2.90;;
75512;SDS011;64090;49.770;18.760;2023-10-08T07:48:14;7.90;;;4.60;;
75512;SDS011;64090;49.770;18.760;2023-10-08T07:52:31;7.80;;;3.60;;
75512;SDS011;64090;49.770;18.760;2023-10-08T07:56:39;8.70;;;3.90;;
75512;SDS011;64090;49.770;18.760;2023-10-08T08:04:52;4.00;;;1.50;;
75512;SDS011;64090;49.770;18.760;2023-10-08T08:08:45;4.40;;;1.80;;
75512;SDS011;64090;49.770;18.760;2023-10-08T08:12:40;3.40;;;1.40;;
75512;SDS011;64090;49.770;18.760;2023-10-08T08:16:26;2.10;;;1.20;;
75512;SDS011;64090;49.770;18.760;2023-10-08T08:41:25;4.30;;;1.90;;
75512;SDS011;64090;49.770;18.760;2023-10-08T08:45:41;3.80;;;1.90;;
75512;SDS011;64090;49.770;18.760;2023-10-08T08:49:28;5.30;;;3.40;;
75512;SDS011;64090;49.770;18.760;2023-10-08T08:53:36;4.10;;;2.00;;
75512;SDS011;64090;49.770;18.760;2023-10-08T08:57:30;5.70;;;2.90;;
75512;SDS011;64090;49.770;18.760;2023-10-08T09:01:31;5.70;;;3.00;;
75512;SDS011;64090;49.770;18.760;2023-10-08T09:05:31;11.80;;;7.20;;
75512;SDS011;64090;49.770;18.760;2023-10-08T09:09:36;5.90;;;2.60;;
75512;SDS011;64090;49.770;18.760;2023-10-08T09:13:07;5.70;;;2.90;;
75512;SDS011;64090;49.770;18.760;2023-10-08T09:17:11;5.30;;;2.40;;
75512;SDS011;64090;49.770;18.760;2023-10-08T09:25:06;4.00;;;1.90;;
75512;SDS011;64090;49.770;18.760;2023-10-08T09:38:16;5.20;;;2.70;;
75512;SDS011;64090;49.770;18.760;2023-10-08T09:42:04;5.80;;;2.30;;
75512;SDS011;64090;49.770;18.760;2023-10-08T09:45:44;3.70;;;1.70;;
75512;SDS011;64090;49.770;18.760;2023-10-08T09:49:43;4.60;;;2.50;;
75512;SDS011;64090;49.770;18.760;2023-10-08T09:57:17;4.40;;;3.40;;
75512;SDS011;64090;49.770;18.760;2023-10-08T10:00:29;4.80;;;3.00;;
75512;SDS011;64090;49.770;18.760;2023-10-08T10:03:52;5.10;;;2.30;;
75512;SDS011;64090;49.770;18.760;2023-10-08T10:07:12;3.80;;;2.10;;
75512;SDS011;64090;49.770;18.760;2023-10-08T10:10:39;3.60;;;1.60;;
75512;SDS011;64090;49.770;18.760;2023-10-08T10:14:35;3.90;;;1.80;;
75512;SDS011;64090;49.770;18.760;2023-10-08T10:18:27;3.30;;;1.70;;
75512;SDS011;64090;49.770;18.760;2023-10-08T10:21:51;3.80;;;1.50;;
75512;SDS011;64090;49.770;18.760;2023-10-08T10:25:10;4.30;;;1.80;;
75512;SDS011;64090;49.770;18.760;2023-10-08T10:32:36;3.30;;;1.60;;
75512;SDS011;64090;49.770;18.760;2023-10-08T10:36:54;3.40;;;1.50;;
75512;SDS011;64090;49.770;18.760;2023-10-08T10:40:22;4.20;;;1.70;;
75512;SDS011;64090;49.770;18.760;2023-10-08T10:44:30;3.90;;;1.90;;
75512;SDS011;64090;49.770;18.760;2023-10-08T10:48:07;3.30;;;1.70;;
75512;SDS011;64090;49.770;18.760;2023-10-08T10:51:40;6.80;;;3.10;;
75512;SDS011;64090;49.770;18.760;2023-10-08T10:55:31;2.60;;;1.40;;
75512;SDS011;64090;49.770;18.760;2023-10-08T10:59:48;2.70;;;1.50;;
75512;SDS011;64090;49.770;18.760;2023-10-08T11:03:18;2.80;;;2.10;;
75512;SDS011;64090;49.770;18.760;2023-10-08T11:07:44;3.70;;;1.80;;
75512;SDS011;64090;49.770;18.760;2023-10-08T11:11:01;2.60;;;1.30;;
75512;SDS011;64090;49.770;18.760;2023-10-08T11:14:46;2.70;;;1.40;;
75512;SDS011;64090;49.770;18.760;2023-10-08T11:19:07;2.30;;;1.00;;
75512;SDS011;64090;49.770;18.760;2023-10-08T11:27:24;2.70;;;1.60;;
75512;SDS011;64090;49.770;18.760;2023-10-08T11:31:06;2.60;;;1.10;;
75512;SDS011;64090;49.770;18.760;2023-10-08T11:36:02;1.90;;;1.40;;
75512;SDS011;64090;49.770;18.760;2023-10-08T11:39:53;1.80;;;1.00;;
75512;SDS011;64090;49.770;18.760;2023-10-08T11:43:30;2.00;;;1.60;;
75512;SDS011;64090;49.770;18.760;2023-10-08T11:47:32;2.90;;;1.40;;
75512;SDS011;64090;49.770;18.760;2023-10-08T11:50:51;3.40;;;1.70;;
75512;SDS011;64090;49.770;18.760;2023-10-08T11:54:33;3.00;;;1.40;;
75512;SDS011;64090;49.770;18.760;2023-10-08T11:58:03;3.70;;;1.60;;
75512;SDS011;64090;49.770;18.760;2023-10-08T12:01:27;2.30;;;1.30;;
75512;SDS011;64090;49.770;18.760;2023-10-08T12:05:26;4.50;;;1.40;;
75512;SDS011;64090;49.770;18.760;2023-10-08T12:09:13;2.70;;;1.40;;
75512;SDS011;64090;49.770;18.760;2023-10-08T12:13:29;4.20;;;1.70;;
75512;SDS011;64090;49.770;18.760;2023-10-08T12:17:40;3.60;;;1.60;;
75512;SDS011;64090;49.770;18.760;2023-10-08T12:21:34;3.60;;;2.20;;
75512;SDS011;64090;49.770;18.760;2023-10-08T12:25:13;2.40;;;1.20;;
75512;SDS011;64090;49.770;18.760;2023-10-08T12:28:42;1.60;;;1.00;;
75512;SDS011;64090;49.770;18.760;2023-10-08T12:32:24;2.50;;;1.20;;
75512;SDS011;64090;49.770;18.760;2023-10-08T12:36:44;2.40;;;0.90;;
75512;SDS011;64090;49.770;18.760;2023-10-08T12:40:06;2.10;;;0.80;;
75512;SDS011;64090;49.770;18.760;2023-10-08T12:44:38;2.30;;;1.40;;
75512;SDS011;64090;49.770;18.760;2023-10-08T12:47:53;1.70;;;0.90;;
75512;SDS011;64090;49.770;18.760;2023-10-08T12:51:15;1.40;;;0.80;;
75512;SDS011;64090;49.770;18.760;2023-10-08T12:55:02;1.40;;;0.80;;
75512;SDS011;64090;49.770;18.760;2023-10-08T12:59:02;1.20;;;0.60;;
75512;SDS011;64090;49.770;18.760;2023-10-08T13:03:20;2.40;;;1.00;;
75512;SDS011;64090;49.770;18.760;2023-10-08T13:07:53;1.60;;;1.00;;
75512;SDS011;64090;49.770;18.760;2023-10-08T13:16:45;1.90;;;1.00;;
75512;SDS011;64090;49.770;18.760;2023-10-08T13:25:56;2.20;;;1.00;;
75512;SDS011;64090;49.770;18.760;2023-10-08T13:37:52;2.10;;;0.90;;
75512;SDS011;64090;49.770;18.760;2023-10-08T13:42:01;2.90;;;1.20;;
75512;SDS011;64090;49.770;18.760;2023-10-08T13:46:02;2.40;;;0.80;;
75512;SDS011;64090;49.770;18.760;2023-10-08T13:49:44;3.20;;;1.10;;
75512;SDS011;64090;49.770;18.760;2023-10-08T13:53:51;1.90;;;0.80;;
75512;SDS011;64090;49.770;18.760;2023-10-08T13:57:41;3.10;;;0.90;;
75512;SDS011;64090;49.770;18.760;2023-10-08T14:01:27;2.10;;;0.90;;
75512;SDS011;64090;49.770;18.760;2023-10-08T14:09:43;2.70;;;0.90;;
75512;SDS011;64090;49.770;18.760;2023-10-08T14:13:53;2.00;;;0.80;;
75512;SDS011;64090;49.770;18.760;2023-10-08T14:23:09;2.30;;;0.90;;
75512;SDS011;64090;49.770;18.760;2023-10-08T14:31:10;1.50;;;0.80;;
75512;SDS011;64090;49.770;18.760;2023-10-08T14:40:38;3.10;;;1.20;;
75512;SDS011;64090;49.770;18.760;2023-10-08T22:22:11;6.80;;;5.30;;
